Disclaimer

Please do not use the information listed here in-flight or in-navigation, as they are not provided to us by the airports but are provided by volunteers, so they might be outdated.

Search


Regions


Airport information page

Radio informations:
Ground (GND) - 121.6 MHz

Latitude: N/A
Longitude: N/A
Elevation: N/A
Operating hours: N/A
Operating agency: N/A
Timezone: N/A
Fuel: N/A

Recent METARs:
RCNN 151130Z 02004KT 9999 FEW012 BKN060 23/18 Q1015 RMK A3000
RCNN 151130Z 02004KT 9999 FEW012 BKN060 23/18 Q1015 RMK A3000
RCNN 151200Z 34003KT 9999 FEW012 BKN060 23/18 Q1016 RMK A3001

Airport on the map: